Time;durP1;ratioP1;P1;durP2;ratioP2;P2;SDS_P1;SDS_P2;PMS_P1;PMS_P2;Temp;Humidity;BMP_temperature;BMP_pressure;BME280_temperature;BME280_humidity;BME280_pressure;Samples;Min_cycle;Max_cycle;Signal;HPM_P1;HPM_P2
2024/02/11 00:01:10;;;;;;;;;;;;;;;;;;4977968;28;20080;-70
2024/02/11 00:03:38;;;;;;;;;;;;;;;;;;4973398;28;19921;-71
2024/02/11 00:06:09;;;;;;;;;;;;;;;;;;4990342;28;19980;-69
2024/02/11 00:08:38;;;;;;;;;;;;;;;;;;4991507;28;19942;-70
2024/02/11 00:11:06;;;;;;;;;;;;;;;;;;4987721;28;19969;-70
2024/02/11 00:13:33;;;;;;;;;;;;;;;;;;4971183;28;19921;-69
2024/02/11 00:16:01;;;;;;;;;;;;;;;;;;4983146;28;20408;-70
2024/02/11 00:18:32;;;;;;;;;;;;;;;;;;4996652;28;20033;-69
2024/02/11 00:21:01;;;;;;;;;;;;;;;;;;4980619;28;19925;-69
2024/02/11 00:23:34;;;;;;;;;;;;;;;;;;4988564;28;19964;-70
2024/02/11 00:26:03;;;;;;;;;;;;;;;;;;4983337;28;20328;-69
2024/02/11 00:31:44;;;;;;;;;;;;;;;;;;4981040;28;19948;-70
2024/02/11 00:34:14;;;;;;;;;;;;;;;;;;4993036;28;20144;-70
2024/02/11 00:36:42;;;;;;;;;;;;;;;;;;4991163;28;19922;-70
2024/02/11 00:39:12;;;;;;;;;;;;;;;;;;4991026;28;19917;-72
2024/02/11 00:41:38;;;;;;;;;;;;;;;;;;4990670;28;19925;-70
2024/02/11 00:44:08;;;;;;;;;;;;;;;;;;4969372;28;20285;-70
2024/02/11 00:46:37;;;;;;;;;;;;;;;;;;4987756;28;19924;-70
2024/02/11 00:49:03;;;;;;;;;;;;;;;;;;4991314;28;20355;-71
2024/02/11 00:51:29;;;;;;;;;;;;;;;;;;4990751;28;19922;-70
2024/02/11 00:53:58;;;;;;;;;;;;;;;;;;4991537;28;19917;-69
2024/02/11 00:56:24;;;;;;;;;;;;;;;;;;4987793;28;19921;-69
2024/02/11 00:58:49;;;;;;;;;;;;;;;;;;4987568;28;19921;-70
2024/02/11 01:01:14;;;;;;;;;;;;;;;;;;4994182;28;20208;-69
2024/02/11 01:03:42;;;;;;;;;;;;;;;;;;4997703;28;19924;-69
2024/02/11 01:06:12;;;;;;;;;;;;;;;;;;4993523;28;19921;-70
2024/02/11 01:08:37;;;;;;;;;;;;;;;;;;4996364;28;19921;-70
2024/02/11 01:11:02;;;;;;;;;;;;;;;;;;4994907;28;19982;-71
2024/02/11 01:13:32;;;;;;;;;;;;;;;;;;4993845;28;19917;-70
2024/02/11 01:15:58;;;;;;;;;;;;;;;;;;4994539;28;20292;-69
2024/02/11 01:18:23;;;;;;;;;;;;;;;;;;4990414;28;19930;-69
2024/02/11 01:20:50;;;;;;;;;;;;;;;;;;4994774;28;20381;-70
2024/02/11 01:23:17;;;;;;;;;;;;;;;;;;4989734;28;19917;-69
2024/02/11 01:25:44;;;;;;;;;;;;;;;;;;4976434;28;19924;-70
2024/02/11 01:28:09;;;;;;;;;;;;;;;;;;4994290;28;20016;-70
2024/02/11 01:30:34;;;;;;;;;;;;;;;;;;4990797;28;19975;-70
2024/02/11 01:33:03;;;;;;;;;;;;;;;;;;4996237;28;19920;-70
2024/02/11 01:35:31;;;;;;;;;;;;;;;;;;4989415;28;19922;-70
2024/02/11 01:38:00;;;;;;;;;;;;;;;;;;4990859;28;19922;-70
2024/02/11 01:40:29;;;;;;;;;;;;;;;;;;4991800;28;20095;-70
2024/02/11 01:42:54;;;;;;;;;;;;;;;;;;4993562;28;19917;-69
2024/02/11 01:45:22;;;;;;;;;;;;;;;;;;5008099;28;20282;-71
2024/02/11 01:47:51;;;;;;;;;;;;;;;;;;4994476;28;19922;-72
2024/02/11 01:50:19;;;;;;;;;;;;;;;;;;4992227;28;19921;-69
2024/02/11 01:52:44;;;;;;;;;;;;;;;;;;4993239;28;20436;-69
2024/02/11 01:55:17;;;;;;;;;;;;;;;;;;4996026;28;19961;-70
2024/02/11 01:57:43;;;;;;;;;;;;;;;;;;4990629;28;19936;-71
2024/02/11 02:00:08;;;;;;;;;;;;;;;;;;4974626;28;19917;-71
2024/02/11 02:02:34;;;;;;;;;;;;;;;;;;4994041;28;20040;-71
2024/02/11 02:05:02;;;;;;;;;;;;;;;;;;4993031;28;19913;-71
2024/02/11 02:07:27;;;;;;;;;;;;;;;;;;4989704;28;19968;-71
2024/02/11 02:09:54;;;;;;;;;;;;;;;;;;4990392;28;19925;-70
2024/02/11 02:12:20;;;;;;;;;;;;;;;;;;4990904;28;19922;-72
2024/02/11 02:14:45;;;;;;;;;;;;;;;;;;4991617;28;19929;-71
2024/02/11 02:17:11;;;;;;;;;;;;;;;;;;4992535;28;19925;-71
2024/02/11 02:19:36;;;;;;;;;;;;;;;;;;4992605;28;19920;-71
2024/02/11 02:22:01;;;;;;;;;;;;;;;;;;4988903;28;19925;-71
2024/02/11 02:24:27;;;;;;;;;;;;;;;;;;4991943;28;19925;-70
2024/02/11 02:26:52;;;;;;;;;;;;;;;;;;4994175;28;19968;-71
2024/02/11 02:29:20;;;;;;;;;;;;;;;;;;4993392;28;20415;-71
2024/02/11 02:31:50;;;;;;;;;;;;;;;;;;4988344;28;19939;-71
2024/02/11 02:34:19;;;;;;;;;;;;;;;;;;4991574;28;19921;-70
2024/02/11 02:36:48;;;;;;;;;;;;;;;;;;4991529;28;20141;-71
2024/02/11 02:39:13;;;;;;;;;;;;;;;;;;4992341;28;19926;-71
2024/02/11 02:41:41;;;;;;;;;;;;;;;;;;4994911;28;21867;-69
2024/02/11 02:44:06;;;;;;;;;;;;;;;;;;4975625;28;19917;-70
2024/02/11 02:46:34;;;;;;;;;;;;;;;;;;4991498;28;20455;-70
2024/02/11 02:49:02;;;;;;;;;;;;;;;;;;4991565;28;19917;-77
2024/02/11 02:51:28;;;;;;;;;;;;;;;;;;4994062;28;19934;-70
2024/02/11 02:53:53;;;;;;;;;;;;;;;;;;4992902;28;19960;-70
2024/02/11 02:56:18;;;;;;;;;;;;;;;;;;4993559;28;20336;-71
2024/02/11 02:58:44;;;;;;;;;;;;;;;;;;4990416;28;19917;-71
2024/02/11 03:01:14;;;;;;;;;;;;;;;;;;4992110;28;19929;-72
2024/02/11 03:03:41;;;;;;;;;;;;;;;;;;4990298;28;19996;-71
2024/02/11 03:06:09;;;;;;;;;;;;;;;;;;4991712;28;19929;-71
2024/02/11 03:08:36;;;;;;;;;;;;;;;;;;4988159;28;21456;-71
2024/02/11 03:11:02;;;;;;;;;;;;;;;;;;4990409;28;20442;-71
2024/02/11 03:13:30;;;;;;;;;;;;;;;;;;4984581;28;20274;-70
2024/02/11 03:15:55;;;;;;;;;;;;;;;;;;4990014;28;19928;-70
2024/02/11 03:18:23;;;;;;;;;;;;;;;;;;4987311;28;19940;-71
2024/02/11 03:20:48;;;;;;;;;;;;;;;;;;4990129;28;19994;-73
2024/02/11 03:23:16;;;;;;;;;;;;;;;;;;4988822;28;20261;-70
2024/02/11 03:25:46;;;;;;;;;;;;;;;;;;4988730;28;19917;-70
2024/02/11 03:28:13;;;;;;;;;;;;;;;;;;4989146;28;19922;-76
2024/02/11 03:30:38;;;;;;;;;;;;;;;;;;4994355;28;20285;-71
2024/02/11 03:33:06;;;;;;;;;;;;;;;;;;4991352;28;19917;-70
2024/02/11 03:35:34;;;;;;;;;;;;;;;;;;4992377;28;19921;-69
2024/02/11 03:41:18;;;;;;;;;;;;;;;;;;4990079;28;20050;-70
2024/02/11 03:43:43;;;;;;;;;;;;;;;;;;4991339;28;20028;-70
2024/02/11 03:46:12;;;;;;;;;;;;;;;;;;4991624;28;19922;-71
2024/02/11 03:48:41;;;;;;;;;;;;;;;;;;4989488;28;20389;-71
2024/02/11 03:51:06;;;;;;;;;;;;;;;;;;4990635;28;19917;-71
2024/02/11 03:53:34;;;;;;;;;;;;;;;;;;4992937;28;20368;-72
2024/02/11 03:56:02;;;;;;;;;;;;;;;;;;4989216;28;20046;-69
2024/02/11 03:58:28;;;;;;;;;;;;;;;;;;4988646;28;20431;-72
2024/02/11 04:00:54;;;;;;;;;;;;;;;;;;5006833;28;20319;-69
2024/02/11 04:03:19;;;;;;;;;;;;;;;;;;4993267;28;19922;-72
2024/02/11 04:05:48;;;;;;;;;;;;;;;;;;4990837;28;19924;-73
2024/02/11 04:08:15;;;;;;;;;;;;;;;;;;5006353;28;20361;-72
2024/02/11 04:10:40;;;;;;;;;;;;;;;;;;4994861;28;20289;-70
2024/02/11 04:13:06;;;;;;;;;;;;;;;;;;4984350;28;19968;-69
2024/02/11 04:15:31;;;;;;;;;;;;;;;;;;4992506;28;19991;-69
2024/02/11 04:18:07;;;;;;;;;;;;;;;;;;4990158;28;19925;-71
2024/02/11 04:20:34;;;;;;;;;;;;;;;;;;4989255;28;19967;-72
2024/02/11 04:23:00;;;;;;;;;;;;;;;;;;4990894;28;19925;-71
2024/02/11 04:25:30;;;;;;;;;;;;;;;;;;4990728;28;20161;-71
2024/02/11 04:27:55;;;;;;;;;;;;;;;;;;4985343;28;19929;-71
2024/02/11 04:30:23;;;;;;;;;;;;;;;;;;4988200;28;19929;-70
2024/02/11 04:36:07;;;;;;;;;;;;;;;;;;4990206;28;20487;-68
2024/02/11 04:38:35;;;;;;;;;;;;;;;;;;4991725;28;19918;-70
2024/02/11 04:41:04;;;;;;;;;;;;;;;;;;4975630;28;20047;-70
2024/02/11 04:43:38;;;;;;;;;;;;;;;;;;4988522;28;20393;-70
2024/02/11 04:46:07;;;;;;;;;;;;;;;;;;4991280;28;19921;-70
2024/02/11 04:48:35;;;;;;;;;;;;;;;;;;4990039;28;19917;-70
2024/02/11 04:51:04;;;;;;;;;;;;;;;;;;4989364;28;20400;-70
2024/02/11 04:53:33;;;;;;;;;;;;;;;;;;4987642;28;20405;-70
2024/02/11 04:55:59;;;;;;;;;;;;;;;;;;4995168;28;19921;-70
2024/02/11 04:58:31;;;;;;;;;;;;;;;;;;4990078;28;19928;-70
2024/02/11 05:00:56;;;;;;;;;;;;;;;;;;5006583;28;19961;-69
2024/02/11 05:03:24;;;;;;;;;;;;;;;;;;4989743;28;20483;-72
2024/02/11 05:05:50;;;;;;;;;;;;;;;;;;4987446;28;19922;-70
2024/02/11 05:08:19;;;;;;;;;;;;;;;;;;4988179;28;20297;-70
2024/02/11 05:10:44;;;;;;;;;;;;;;;;;;4989479;28;20012;-70
2024/02/11 05:13:11;;;;;;;;;;;;;;;;;;4992834;28;19983;-70
2024/02/11 05:15:40;;;;;;;;;;;;;;;;;;4985805;28;20019;-69
2024/02/11 05:18:09;;;;;;;;;;;;;;;;;;4985741;28;19975;-71
2024/02/11 05:20:36;;;;;;;;;;;;;;;;;;4989951;28;20380;-71
2024/02/11 05:23:01;;;;;;;;;;;;;;;;;;4989471;28;20404;-70
2024/02/11 05:25:27;;;;;;;;;;;;;;;;;;4991114;28;19922;-69
2024/02/11 05:27:56;;;;;;;;;;;;;;;;;;4989704;28;19918;-70
2024/02/11 05:30:23;;;;;;;;;;;;;;;;;;4988077;28;19921;-70
2024/02/11 05:32:48;;;;;;;;;;;;;;;;;;4986011;28;20052;-69
2024/02/11 05:35:19;;;;;;;;;;;;;;;;;;4989699;28;19922;-70
2024/02/11 05:37:44;;;;;;;;;;;;;;;;;;4987522;28;20289;-71
2024/02/11 05:40:10;;;;;;;;;;;;;;;;;;4989953;28;19921;-71
2024/02/11 05:42:38;;;;;;;;;;;;;;;;;;4989089;28;19935;-71
2024/02/11 05:45:04;;;;;;;;;;;;;;;;;;4990673;28;19921;-71
2024/02/11 05:47:30;;;;;;;;;;;;;;;;;;4986502;28;19922;-72
2024/02/11 05:49:55;;;;;;;;;;;;;;;;;;4988808;28;20327;-70
2024/02/11 05:52:20;;;;;;;;;;;;;;;;;;4994403;28;19924;-70
2024/02/11 05:54:48;;;;;;;;;;;;;;;;;;4993865;28;19917;-70
2024/02/11 05:57:14;;;;;;;;;;;;;;;;;;4990667;28;19929;-70
2024/02/11 05:59:42;;;;;;;;;;;;;;;;;;5006964;28;19917;-71
2024/02/11 06:02:09;;;;;;;;;;;;;;;;;;4991060;28;19932;-72
2024/02/11 06:04:35;;;;;;;;;;;;;;;;;;5007623;28;19918;-72
2024/02/11 06:07:00;;;;;;;;;;;;;;;;;;4994100;28;19922;-72
2024/02/11 06:09:28;;;;;;;;;;;;;;;;;;4990972;28;19928;-72
2024/02/11 06:11:54;;;;;;;;;;;;;;;;;;4992413;28;19918;-70
2024/02/11 06:14:19;;;;;;;;;;;;;;;;;;4994996;28;19917;-72
2024/02/11 06:16:45;;;;;;;;;;;;;;;;;;4992688;28;20003;-73
2024/02/11 06:19:10;;;;;;;;;;;;;;;;;;4977337;28;19957;-72
2024/02/11 06:21:35;;;;;;;;;;;;;;;;;;4991984;28;20044;-71
2024/02/11 06:24:04;;;;;;;;;;;;;;;;;;4992984;28;19921;-73
2024/02/11 06:26:36;;;;;;;;;;;;;;;;;;4993043;28;19928;-73
2024/02/11 06:29:01;;;;;;;;;;;;;;;;;;4992563;28;19968;-72
2024/02/11 06:31:26;;;;;;;;;;;;;;;;;;4993889;28;20015;-73
2024/02/11 06:37:09;;;;;;;;;;;;;;;;;;4992655;28;19943;-73
2024/02/11 06:39:35;;;;;;;;;;;;;;;;;;4991544;28;20143;-73
2024/02/11 06:42:02;;;;;;;;;;;;;;;;;;4987942;28;19971;-73
2024/02/11 06:47:44;;;;;;;;;;;;;;;;;;4988291;28;20340;-72
2024/02/11 06:50:09;;;;;;;;;;;;;;;;;;4990577;28;20012;-72
2024/02/11 06:52:34;;;;;;;;;;;;;;;;;;4990744;28;20779;-73
2024/02/11 06:55:01;;;;;;;;;;;;;;;;;;4991551;28;19928;-73
2024/02/11 06:57:26;;;;;;;;;;;;;;;;;;4992108;28;19921;-73
2024/02/11 06:59:52;;;;;;;;;;;;;;;;;;4991181;28;20308;-73
2024/02/11 07:02:18;;;;;;;;;;;;;;;;;;4993381;28;19921;-74
2024/02/11 07:04:43;;;;;;;;;;;;;;;;;;4988731;28;19948;-74
2024/02/11 07:07:09;;;;;;;;;;;;;;;;;;4993349;28;19921;-74
2024/02/11 07:09:35;;;;;;;;;;;;;;;;;;4995601;28;20032;-75
2024/02/11 07:12:00;;;;;;;;;;;;;;;;;;4991569;28;19922;-75
2024/02/11 07:14:25;;;;;;;;;;;;;;;;;;4992156;28;20487;-75
2024/02/11 07:16:51;;;;;;;;;;;;;;;;;;4991728;28;19923;-76
2024/02/11 07:22:33;;;;;;;;;;;;;;;;;;4991650;28;19928;-76
2024/02/11 07:27:51;;;;;;;;;;;;;;;;;;4990532;28;20365;-77
2024/02/11 07:30:16;;;;;;;;;;;;;;;;;;4991528;28;19975;-77
2024/02/11 07:32:42;;;;;;;;;;;;;;;;;;4990344;28;20438;-75
2024/02/11 07:35:07;;;;;;;;;;;;;;;;;;4991824;28;19948;-73
2024/02/11 07:37:33;;;;;;;;;;;;;;;;;;4991513;28;19963;-77
2024/02/11 07:39:58;;;;;;;;;;;;;;;;;;4990868;28;20389;-76
2024/02/11 07:42:23;;;;;;;;;;;;;;;;;;4986173;28;19926;-77
2024/02/11 07:44:49;;;;;;;;;;;;;;;;;;4973163;28;20373;-77
2024/02/11 07:47:15;;;;;;;;;;;;;;;;;;5007132;28;20181;-77
2024/02/11 07:49:40;;;;;;;;;;;;;;;;;;4989206;28;19924;-74
2024/02/11 07:52:06;;;;;;;;;;;;;;;;;;4991372;28;19918;-74
2024/02/11 07:54:33;;;;;;;;;;;;;;;;;;4992779;28;19922;-73
2024/02/11 07:56:59;;;;;;;;;;;;;;;;;;4991139;28;19964;-75
2024/02/11 07:59:24;;;;;;;;;;;;;;;;;;4992629;28;20004;-75
2024/02/11 08:01:49;;;;;;;;;;;;;;;;;;4994050;28;19987;-76
2024/02/11 08:04:16;;;;;;;;;;;;;;;;;;4991210;28;19999;-76
2024/02/11 08:06:41;;;;;;;;;;;;;;;;;;4992506;28;19956;-76
2024/02/11 08:09:09;;;;;;;;;;;;;;;;;;4990375;28;19975;-75
2024/02/11 08:11:35;;;;;;;;;;;;;;;;;;4990628;28;19933;-75
2024/02/11 08:14:00;;;;;;;;;;;;;;;;;;4986660;28;19921;-75
2024/02/11 08:16:26;;;;;;;;;;;;;;;;;;4990108;28;20459;-74
2024/02/11 08:18:51;;;;;;;;;;;;;;;;;;4974500;28;20618;-73
2024/02/11 08:21:19;;;;;;;;;;;;;;;;;;4990646;28;19929;-74
2024/02/11 08:23:44;;;;;;;;;;;;;;;;;;4991362;28;19967;-76
2024/02/11 08:26:10;;;;;;;;;;;;;;;;;;4991196;28;19918;-73
2024/02/11 08:28:35;;;;;;;;;;;;;;;;;;4992729;28;19921;-74
2024/02/11 08:31:01;;;;;;;;;;;;;;;;;;4992589;28;19928;-75
2024/02/11 08:33:26;;;;;;;;;;;;;;;;;;4987945;28;19965;-74
2024/02/11 08:35:52;;;;;;;;;;;;;;;;;;5005848;28;19972;-74
2024/02/11 08:38:17;;;;;;;;;;;;;;;;;;4991423;28;20254;-74
2024/02/11 08:40:52;;;;;;;;;;;;;;;;;;4987854;28;19922;-74
2024/02/11 08:43:19;;;;;;;;;;;;;;;;;;4988520;28;20292;-75
2024/02/11 08:45:44;;;;;;;;;;;;;;;;;;4968312;28;19922;-74
2024/02/11 08:48:10;;;;;;;;;;;;;;;;;;4986067;28;20066;-74
2024/02/11 08:50:35;;;;;;;;;;;;;;;;;;4992478;28;19924;-75
2024/02/11 08:53:00;;;;;;;;;;;;;;;;;;4986630;28;20150;-75
2024/02/11 08:55:26;;;;;;;;;;;;;;;;;;4990767;28;19958;-73
2024/02/11 08:57:51;;;;;;;;;;;;;;;;;;4991057;28;20315;-75
2024/02/11 09:00:18;;;;;;;;;;;;;;;;;;4990315;28;19976;-74
2024/02/11 09:02:43;;;;;;;;;;;;;;;;;;4970497;28;19968;-75
2024/02/11 09:05:08;;;;;;;;;;;;;;;;;;4991791;28;20119;-73
2024/02/11 09:07:37;;;;;;;;;;;;;;;;;;4987018;28;20386;-74
2024/02/11 09:10:02;;;;;;;;;;;;;;;;;;4991501;28;20418;-71
2024/02/11 09:12:29;;;;;;;;;;;;;;;;;;4989902;28;19918;-75
2024/02/11 09:18:13;;;;;;;;;;;;;;;;;;4988887;28;19972;-71
2024/02/11 09:20:39;;;;;;;;;;;;;;;;;;4992487;28;19957;-73
2024/02/11 09:23:04;;;;;;;;;;;;;;;;;;4989619;28;20499;-72
2024/02/11 09:25:30;;;;;;;;;;;;;;;;;;4994750;28;19921;-72
2024/02/11 09:27:55;;;;;;;;;;;;;;;;;;4995242;28;20396;-73
2024/02/11 09:30:21;;;;;;;;;;;;;;;;;;4995150;28;19921;-71
2024/02/11 09:32:48;;;;;;;;;;;;;;;;;;4993638;28;19917;-73
2024/02/11 09:35:13;;;;;;;;;;;;;;;;;;4993725;28;19961;-72
2024/02/11 09:37:39;;;;;;;;;;;;;;;;;;4991562;28;20446;-73
2024/02/11 09:40:05;;;;;;;;;;;;;;;;;;4993120;28;19987;-73
2024/02/11 09:42:30;;;;;;;;;;;;;;;;;;4993012;28;20376;-72
2024/02/11 09:44:56;;;;;;;;;;;;;;;;;;4993305;28;20020;-73
2024/02/11 09:47:21;;;;;;;;;;;;;;;;;;4992909;28;19922;-72
2024/02/11 09:49:46;;;;;;;;;;;;;;;;;;4992810;28;19928;-72
2024/02/11 09:52:12;;;;;;;;;;;;;;;;;;4993765;28;19975;-74
2024/02/11 09:54:37;;;;;;;;;;;;;;;;;;4994598;28;19998;-73
2024/02/11 09:57:03;;;;;;;;;;;;;;;;;;4991950;28;20459;-73
2024/02/11 09:59:28;;;;;;;;;;;;;;;;;;4995383;28;20420;-71
2024/02/11 10:01:54;;;;;;;;;;;;;;;;;;4992448;28;19925;-75
2024/02/11 10:04:19;;;;;;;;;;;;;;;;;;4989778;28;20075;-73
2024/02/11 10:06:44;;;;;;;;;;;;;;;;;;4993618;28;19913;-72
2024/02/11 10:09:13;;;;;;;;;;;;;;;;;;4995054;28;19924;-73
2024/02/11 10:14:54;;;;;;;;;;;;;;;;;;4993648;28;19975;-72
2024/02/11 10:17:21;;;;;;;;;;;;;;;;;;5006952;28;20498;-74
2024/02/11 10:19:46;;;;;;;;;;;;;;;;;;4992581;28;20620;-72
2024/02/11 10:22:12;;;;;;;;;;;;;;;;;;4991444;28;19921;-72
2024/02/11 10:24:37;;;;;;;;;;;;;;;;;;4993665;28;20435;-74
2024/02/11 10:27:02;;;;;;;;;;;;;;;;;;4992367;28;19918;-73
2024/02/11 10:29:28;;;;;;;;;;;;;;;;;;4995778;28;19996;-74
2024/02/11 10:31:53;;;;;;;;;;;;;;;;;;4990024;28;19968;-74
2024/02/11 10:34:18;;;;;;;;;;;;;;;;;;4994553;28;19921;-76
2024/02/11 10:36:44;;;;;;;;;;;;;;;;;;4992606;28;20057;-75
2024/02/11 10:39:09;;;;;;;;;;;;;;;;;;4993919;28;19921;-76
2024/02/11 10:41:37;;;;;;;;;;;;;;;;;;4990750;28;19921;-74
2024/02/11 10:44:04;;;;;;;;;;;;;;;;;;4993843;28;19957;-76
2024/02/11 10:46:33;;;;;;;;;;;;;;;;;;4993408;28;21582;-76
2024/02/11 10:48:58;;;;;;;;;;;;;;;;;;4998336;28;19980;-75
2024/02/11 10:51:24;;;;;;;;;;;;;;;;;;4997211;28;19944;-77
2024/02/11 10:53:49;;;;;;;;;;;;;;;;;;4990737;28;21678;-74
2024/02/11 10:56:14;;;;;;;;;;;;;;;;;;4995117;28;20254;-78
2024/02/11 10:58:39;;;;;;;;;;;;;;;;;;4991348;28;19979;-75
2024/02/11 11:01:05;;;;;;;;;;;;;;;;;;5008939;28;20452;-75
2024/02/11 11:03:30;;;;;;;;;;;;;;;;;;4992763;28;20519;-77
2024/02/11 11:05:55;;;;;;;;;;;;;;;;;;4993506;28;20492;-77
2024/02/11 11:08:21;;;;;;;;;;;;;;;;;;4991774;28;20036;-75
2024/02/11 11:10:47;;;;;;;;;;;;;;;;;;4987820;28;20545;-76
2024/02/11 11:13:12;;;;;;;;;;;;;;;;;;4976901;28;20132;-77
2024/02/11 11:18:54;;;;;;;;;;;;;;;;;;4991968;28;19936;-75
2024/02/11 11:21:19;;;;;;;;;;;;;;;;;;4990661;28;19922;-75
2024/02/11 11:23:45;;;;;;;;;;;;;;;;;;4990626;28;20293;-77
2024/02/11 11:29:27;;;;;;;;;;;;;;;;;;4989601;28;20268;-76
2024/02/11 11:31:53;;;;;;;;;;;;;;;;;;4991817;28;19921;-76
2024/02/11 11:34:18;;;;;;;;;;;;;;;;;;4991025;28;19932;-75
2024/02/11 11:36:44;;;;;;;;;;;;;;;;;;4991262;28;19921;-76
2024/02/11 11:39:13;;;;;;;;;;;;;;;;;;4992200;28;19917;-76
2024/02/11 11:41:39;;;;;;;;;;;;;;;;;;5006738;28;20296;-77
2024/02/11 11:44:05;;;;;;;;;;;;;;;;;;4989294;28;19921;-77
2024/02/11 11:46:31;;;;;;;;;;;;;;;;;;4993846;28;19925;-77
2024/02/11 11:48:56;;;;;;;;;;;;;;;;;;4994918;28;19925;-78
2024/02/11 11:51:22;;;;;;;;;;;;;;;;;;4999368;28;19921;-76
2024/02/11 11:53:49;;;;;;;;;;;;;;;;;;4995306;28;20348;-76
2024/02/11 11:56:14;;;;;;;;;;;;;;;;;;5003321;28;20025;-76
2024/02/11 11:58:39;;;;;;;;;;;;;;;;;;5006142;28;19957;-78
2024/02/11 12:01:05;;;;;;;;;;;;;;;;;;5007737;28;19921;-77
2024/02/11 12:03:30;;;;;;;;;;;;;;;;;;5017619;28;19914;-77
2024/02/11 12:05:55;;;;;;;;;;;;;;;;;;5017459;28;19914;-76
2024/02/11 12:08:21;;;;;;;;;;;;;;;;;;5011172;28;19995;-78
2024/02/11 12:10:46;;;;;;;;;;;;;;;;;;5017843;28;20012;-77
2024/02/11 12:13:17;;;;;;;;;;;;;;;;;;4997783;28;19918;-77
2024/02/11 12:15:42;;;;;;;;;;;;;;;;;;5013717;28;19913;-78
2024/02/11 12:18:07;;;;;;;;;;;;;;;;;;5011752;28;19985;-77
2024/02/11 12:20:34;;;;;;;;;;;;;;;;;;5011817;28;19921;-77
2024/02/11 12:22:59;;;;;;;;;;;;;;;;;;5005710;28;20052;-79
2024/02/11 12:25:25;;;;;;;;;;;;;;;;;;5003015;28;19933;-77
2024/02/11 12:27:50;;;;;;;;;;;;;;;;;;5001157;28;20349;-78
2024/02/11 12:30:16;;;;;;;;;;;;;;;;;;5000324;28;19914;-79
2024/02/11 12:32:41;;;;;;;;;;;;;;;;;;5004566;28;19918;-77
2024/02/11 12:35:07;;;;;;;;;;;;;;;;;;4980036;28;20019;-76
2024/02/11 12:37:32;;;;;;;;;;;;;;;;;;4999312;28;19924;-77
2024/02/11 12:39:57;;;;;;;;;;;;;;;;;;4997856;28;19928;-76
2024/02/11 12:42:23;;;;;;;;;;;;;;;;;;4994530;28;20040;-77
2024/02/11 12:45:06;;;;;;;;;;;;;;;;;;4994798;28;20293;-77
2024/02/11 12:50:49;;;;;;;;;;;;;;;;;;5003427;28;19971;-77
2024/02/11 12:53:24;;;;;;;;;;;;;;;;;;4999325;28;20065;-77
2024/02/11 12:55:49;;;;;;;;;;;;;;;;;;4994794;28;20026;-77
2024/02/11 12:58:14;;;;;;;;;;;;;;;;;;4993025;28;20371;-77
2024/02/11 13:00:39;;;;;;;;;;;;;;;;;;4979501;28;19914;-77
2024/02/11 13:03:06;;;;;;;;;;;;;;;;;;4979351;28;19929;-76
2024/02/11 13:05:31;;;;;;;;;;;;;;;;;;4996332;28;20011;-77
2024/02/11 13:07:59;;;;;;;;;;;;;;;;;;4992331;28;19976;-77
2024/02/11 13:10:24;;;;;;;;;;;;;;;;;;4989983;28;20312;-77
2024/02/11 13:12:52;;;;;;;;;;;;;;;;;;4990881;28;19996;-77
2024/02/11 13:15:18;;;;;;;;;;;;;;;;;;4994561;28;19922;-78
2024/02/11 13:17:43;;;;;;;;;;;;;;;;;;4994261;28;19924;-78
2024/02/11 13:23:16;;;;;;;;;;;;;;;;;;4986119;28;19925;-77
2024/02/11 13:25:41;;;;;;;;;;;;;;;;;;4984142;28;19928;-77
2024/02/11 13:28:09;;;;;;;;;;;;;;;;;;4984745;28;19925;-77
2024/02/11 13:30:34;;;;;;;;;;;;;;;;;;4986573;28;21284;-81
2024/02/11 13:33:01;;;;;;;;;;;;;;;;;;4990090;28;19921;-80
2024/02/11 13:35:26;;;;;;;;;;;;;;;;;;4990109;28;20149;-78
2024/02/11 13:37:51;;;;;;;;;;;;;;;;;;4993434;28;20364;-78
2024/02/11 13:40:17;;;;;;;;;;;;;;;;;;4988799;28;19921;-77
2024/02/11 13:42:42;;;;;;;;;;;;;;;;;;4976999;28;20003;-75
2024/02/11 13:45:08;;;;;;;;;;;;;;;;;;4992700;28;19923;-77
2024/02/11 13:47:34;;;;;;;;;;;;;;;;;;4991688;28;19923;-77
2024/02/11 13:49:59;;;;;;;;;;;;;;;;;;4990332;28;19956;-77
2024/02/11 13:52:25;;;;;;;;;;;;;;;;;;4990656;28;20425;-75
2024/02/11 13:54:50;;;;;;;;;;;;;;;;;;4993125;28;19929;-76
2024/02/11 13:57:18;;;;;;;;;;;;;;;;;;4989733;28;20041;-77
2024/02/11 13:59:43;;;;;;;;;;;;;;;;;;4989341;28;19913;-77
2024/02/11 14:02:08;;;;;;;;;;;;;;;;;;4990203;28;20395;-76
2024/02/11 14:04:34;;;;;;;;;;;;;;;;;;4989936;28;19929;-76
2024/02/11 14:06:59;;;;;;;;;;;;;;;;;;4993149;28;21220;-76
2024/02/11 14:09:25;;;;;;;;;;;;;;;;;;4996908;28;19921;-78
2024/02/11 14:11:51;;;;;;;;;;;;;;;;;;4997662;28;20380;-79
2024/02/11 14:14:17;;;;;;;;;;;;;;;;;;5002300;28;19924;-77
2024/02/11 14:16:42;;;;;;;;;;;;;;;;;;5004253;28;20028;-78
2024/02/11 14:19:12;;;;;;;;;;;;;;;;;;5004296;28;19921;-77
2024/02/11 14:21:41;;;;;;;;;;;;;;;;;;5019680;28;19921;-77
2024/02/11 14:24:07;;;;;;;;;;;;;;;;;;5003260;28;19921;-77
2024/02/11 14:26:33;;;;;;;;;;;;;;;;;;5014716;28;19928;-80
2024/02/11 14:28:58;;;;;;;;;;;;;;;;;;5012867;28;19909;-79
2024/02/11 14:34:41;;;;;;;;;;;;;;;;;;5009658;28;19961;-81
2024/02/11 14:37:07;;;;;;;;;;;;;;;;;;5011412;28;19956;-81
2024/02/11 14:39:32;;;;;;;;;;;;;;;;;;5010431;28;19949;-80
2024/02/11 14:41:57;;;;;;;;;;;;;;;;;;5006473;28;19924;-82
2024/02/11 14:44:23;;;;;;;;;;;;;;;;;;5002617;28;19940;-81
2024/02/11 14:49:33;;;;;;;;;;;;;;;;;;4999297;28;20003;-80
2024/02/11 14:51:58;;;;;;;;;;;;;;;;;;4993113;28;20385;-81
2024/02/11 14:54:25;;;;;;;;;;;;;;;;;;4997885;28;19944;-81
2024/02/11 15:03:24;;;;;;;;;;;;;;;;;;4992095;28;19928;-79
2024/02/11 15:05:49;;;;;;;;;;;;;;;;;;4990820;28;19925;-79
2024/02/11 15:08:16;;;;;;;;;;;;;;;;;;4990133;28;20373;-78
2024/02/11 15:10:41;;;;;;;;;;;;;;;;;;4994455;28;19925;-78
2024/02/11 15:13:06;;;;;;;;;;;;;;;;;;4991780;28;19956;-78
2024/02/11 15:18:49;;;;;;;;;;;;;;;;;;4982119;28;19932;-77
2024/02/11 15:21:14;;;;;;;;;;;;;;;;;;4991218;28;19921;-77
2024/02/11 15:23:39;;;;;;;;;;;;;;;;;;4990332;28;19922;-75
2024/02/11 15:26:07;;;;;;;;;;;;;;;;;;4990838;28;20424;-75
2024/02/11 15:28:33;;;;;;;;;;;;;;;;;;4991961;28;19967;-76
2024/02/11 15:30:58;;;;;;;;;;;;;;;;;;4991476;28;20027;-76
2024/02/11 15:33:25;;;;;;;;;;;;;;;;;;4991046;28;19994;-74
2024/02/11 15:39:06;;;;;;;;;;;;;;;;;;4992793;28;19943;-74
2024/02/11 15:41:32;;;;;;;;;;;;;;;;;;4989675;28;19926;-74
2024/02/11 15:47:13;;;;;;;;;;;;;;;;;;4989821;28;20240;-73
2024/02/11 15:52:55;;;;;;;;;;;;;;;;;;4991126;28;19928;-74
2024/02/11 15:55:21;;;;;;;;;;;;;;;;;;4986152;28;19937;-74
2024/02/11 15:57:46;;;;;;;;;;;;;;;;;;4989378;28;20278;-74
2024/02/11 16:00:16;;;;;;;;;;;;;;;;;;5005169;28;19917;-73
2024/02/11 16:02:43;;;;;;;;;;;;;;;;;;4993001;28;19921;-72
2024/02/11 16:05:12;;;;;;;;;;;;;;;;;;4991907;28;20296;-73
2024/02/11 16:10:28;;;;;;;;;;;;;;;;;;4990761;28;19921;-72
2024/02/11 16:12:54;;;;;;;;;;;;;;;;;;4986938;28;19928;-71
2024/02/11 16:15:20;;;;;;;;;;;;;;;;;;4988488;28;20394;-73
2024/02/11 16:20:42;;;;;;;;;;;;;;;;;;4991743;28;19926;-72
2024/02/11 16:23:08;;;;;;;;;;;;;;;;;;4987892;28;19979;-72
2024/02/11 16:25:36;;;;;;;;;;;;;;;;;;4987710;28;19921;-72
2024/02/11 16:28:04;;;;;;;;;;;;;;;;;;4989195;28;20199;-73
2024/02/11 16:30:32;;;;;;;;;;;;;;;;;;4993398;28;19917;-72
2024/02/11 16:32:57;;;;;;;;;;;;;;;;;;4989220;28;19921;-73
2024/02/11 16:35:23;;;;;;;;;;;;;;;;;;4990208;28;20180;-71
2024/02/11 16:37:48;;;;;;;;;;;;;;;;;;4991683;28;19917;-71
2024/02/11 16:40:14;;;;;;;;;;;;;;;;;;4983154;28;19975;-71
2024/02/11 16:42:43;;;;;;;;;;;;;;;;;;4972113;28;20516;-72
2024/02/11 16:45:11;;;;;;;;;;;;;;;;;;4991274;28;19933;-72
2024/02/11 16:47:37;;;;;;;;;;;;;;;;;;4984812;28;20446;-72
2024/02/11 16:50:02;;;;;;;;;;;;;;;;;;4989638;28;19921;-72
2024/02/11 16:52:29;;;;;;;;;;;;;;;;;;4985745;28;19922;-72
2024/02/11 16:54:54;;;;;;;;;;;;;;;;;;4987522;28;20381;-72
2024/02/11 16:57:22;;;;;;;;;;;;;;;;;;5004078;28;19928;-72
2024/02/11 16:59:49;;;;;;;;;;;;;;;;;;4991869;28;19917;-73
2024/02/11 17:02:14;;;;;;;;;;;;;;;;;;4992124;28;20300;-73
2024/02/11 17:04:39;;;;;;;;;;;;;;;;;;4990418;28;19932;-73
2024/02/11 17:07:07;;;;;;;;;;;;;;;;;;4989678;28;20004;-74
2024/02/11 17:09:32;;;;;;;;;;;;;;;;;;4992731;28;19932;-73
2024/02/11 17:11:57;;;;;;;;;;;;;;;;;;4986445;28;19924;-73
2024/02/11 17:14:23;;;;;;;;;;;;;;;;;;4973093;28;20575;-72
2024/02/11 17:16:48;;;;;;;;;;;;;;;;;;4988680;28;20379;-72
2024/02/11 17:19:18;;;;;;;;;;;;;;;;;;4992917;28;19938;-72
2024/02/11 17:21:44;;;;;;;;;;;;;;;;;;4987042;28;19975;-72
2024/02/11 17:24:10;;;;;;;;;;;;;;;;;;4986755;28;20012;-72
2024/02/11 17:26:37;;;;;;;;;;;;;;;;;;4989941;28;19924;-72
2024/02/11 17:29:02;;;;;;;;;;;;;;;;;;4990257;28;20432;-71
2024/02/11 17:31:28;;;;;;;;;;;;;;;;;;4989177;28;19927;-72
2024/02/11 17:33:53;;;;;;;;;;;;;;;;;;4990208;28;20267;-71
2024/02/11 17:36:21;;;;;;;;;;;;;;;;;;4988283;28;20184;-72
2024/02/11 17:38:48;;;;;;;;;;;;;;;;;;4990172;28;19928;-71
2024/02/11 17:41:19;;;;;;;;;;;;;;;;;;4990255;28;20027;-73
2024/02/11 17:43:47;;;;;;;;;;;;;;;;;;4976587;28;19922;-73
2024/02/11 17:46:13;;;;;;;;;;;;;;;;;;4992031;28;19928;-73
2024/02/11 17:48:41;;;;;;;;;;;;;;;;;;4994490;28;19926;-73
2024/02/11 17:51:18;;;;;;;;;;;;;;;;;;4990697;28;19972;-73
2024/02/11 17:53:43;;;;;;;;;;;;;;;;;;4989886;28;19994;-73